createdAt,value
2023-03-12T00:04:16.128Z,2.94
2023-03-12T00:09:18.841Z,2.70
2023-03-12T00:14:21.548Z,4.25
2023-03-12T00:19:24.328Z,2.74
2023-03-12T00:24:27.071Z,5.06
2023-03-12T00:29:29.790Z,3.34
2023-03-12T00:34:32.537Z,2.22
2023-03-12T00:39:35.636Z,4.22
2023-03-12T00:44:38.689Z,2.81
2023-03-12T00:49:41.753Z,4.96
2023-03-12T00:54:44.458Z,3.45
2023-03-12T00:59:47.342Z,3.32
2023-03-12T01:04:50.059Z,4.53
2023-03-12T01:09:52.848Z,3.29
2023-03-12T01:14:55.656Z,4.72
2023-03-12T01:19:58.672Z,3.17
2023-03-12T01:25:01.388Z,4.74
2023-03-12T01:30:06.023Z,3.52
2023-03-12T01:35:09.341Z,4.70
2023-03-12T01:40:20.905Z,3.30
2023-03-12T01:45:58.079Z,4.76
2023-03-12T01:51:02.651Z,3.83
2023-03-12T01:56:08.639Z,4.72
2023-03-12T02:01:11.463Z,4.31
2023-03-12T02:06:15.919Z,4.08
2023-03-12T02:11:18.739Z,4.97
2023-03-12T02:16:21.554Z,4.11
2023-03-12T02:21:27.355Z,4.72
2023-03-12T02:26:31.237Z,4.13
2023-03-12T02:31:41.089Z,5.02
2023-03-12T02:36:43.920Z,4.30
2023-03-12T02:41:53.814Z,5.14
2023-03-12T02:46:59.295Z,4.71
2023-03-12T02:52:02.385Z,5.66
2023-03-12T02:57:05.269Z,4.22
2023-03-12T03:02:09.729Z,5.39
2023-03-12T03:07:12.642Z,5.87
2023-03-12T03:12:15.438Z,4.77
2023-03-12T03:17:18.398Z,5.43
2023-03-12T03:22:22.791Z,4.77
2023-03-12T03:27:25.691Z,5.34
2023-03-12T03:32:28.753Z,4.93
2023-03-12T03:37:31.514Z,4.61
2023-03-12T03:42:34.297Z,4.97
2023-03-12T03:47:37.128Z,4.31
2023-03-12T03:52:39.837Z,4.65
2023-03-12T03:57:42.538Z,3.90
2023-03-12T04:02:45.491Z,4.39
2023-03-12T04:07:48.527Z,3.40
2023-03-12T04:12:52.988Z,4.51
2023-03-12T04:17:55.887Z,3.57
2023-03-12T04:22:58.722Z,4.58
2023-03-12T04:28:02.080Z,3.46
2023-03-12T04:33:06.096Z,4.05
2023-03-12T04:38:08.807Z,3.35
2023-03-12T04:43:11.654Z,4.00
2023-03-12T04:48:14.492Z,3.93
2023-03-12T04:53:17.529Z,3.27
2023-03-12T04:58:20.805Z,4.20
2023-03-12T05:03:23.517Z,2.78
2023-03-12T05:08:26.312Z,4.30
2023-03-12T05:13:29.025Z,3.19
2023-03-12T05:18:31.718Z,3.84
2023-03-12T05:23:36.044Z,3.04
2023-03-12T05:28:38.847Z,3.73
2023-03-12T05:33:42.004Z,3.28
2023-03-12T05:38:45.026Z,3.86
2023-03-12T05:43:48.549Z,3.05
2023-03-12T05:48:51.599Z,3.51
2023-03-12T05:53:54.371Z,3.62
2023-03-12T05:58:57.098Z,3.24
2023-03-12T06:03:59.937Z,3.61
2023-03-12T06:09:04.726Z,3.14
2023-03-12T06:14:07.603Z,3.74
2023-03-12T06:19:14.139Z,2.83
2023-03-12T06:24:16.913Z,3.45
2023-03-12T06:29:19.597Z,2.60
2023-03-12T06:34:22.360Z,3.65
2023-03-12T06:39:25.419Z,2.61
2023-03-12T06:44:28.154Z,3.13
2023-03-12T06:49:33.381Z,2.79
2023-03-12T06:54:36.154Z,3.13
2023-03-12T06:59:38.831Z,2.72
2023-03-12T07:04:41.541Z,3.13
2023-03-12T07:09:44.496Z,2.93
2023-03-12T07:14:47.234Z,3.13
2023-03-12T07:19:50.110Z,3.14
2023-03-12T07:24:52.901Z,3.63
2023-03-12T07:29:55.587Z,2.31
2023-03-12T07:34:58.397Z,4.10
2023-03-12T07:40:01.198Z,3.13
2023-03-12T07:45:04.599Z,2.25
2023-03-12T07:50:07.882Z,3.58
2023-03-12T07:55:10.929Z,2.82
2023-03-12T08:00:15.427Z,1.98
2023-03-12T08:05:18.877Z,3.11
2023-03-12T08:10:22.512Z,3.89
2023-03-12T08:15:25.613Z,2.97
2023-03-12T08:20:28.702Z,2.67
2023-03-12T08:25:31.648Z,2.38
2023-03-12T08:30:34.404Z,2.18
2023-03-12T08:35:37.550Z,2.26
2023-03-12T08:40:40.532Z,2.27
2023-03-12T08:45:43.358Z,2.21
2023-03-12T08:50:46.036Z,2.21
2023-03-12T08:55:49.096Z,2.28
2023-03-12T09:00:52.673Z,2.29
2023-03-12T09:06:16.803Z,2.39
2023-03-12T09:11:19.671Z,2.23
2023-03-12T09:16:22.421Z,2.06
2023-03-12T09:21:25.267Z,2.26
2023-03-12T09:26:28.073Z,2.69
2023-03-12T09:31:30.871Z,2.86
2023-03-12T09:36:34.349Z,3.11
2023-03-12T09:41:40.549Z,3.37
2023-03-12T09:46:51.417Z,3.32
2023-03-12T09:51:57.124Z,3.40
2023-03-12T09:57:04.330Z,3.45
2023-03-12T10:02:30.249Z,3.63
2023-03-12T10:07:39.834Z,3.73
2023-03-12T10:12:54.500Z,3.81
2023-03-12T10:18:10.748Z,4.01
2023-03-12T10:23:52.027Z,3.67
2023-03-12T10:29:06.298Z,3.33
2023-03-12T10:34:19.159Z,5.75
2023-03-12T10:39:22.460Z,4.83
2023-03-12T10:44:25.698Z,5.56
2023-03-12T10:49:32.225Z,3.83
2023-03-12T10:54:40.891Z,5.07
2023-03-12T10:59:47.618Z,3.55
2023-03-12T11:04:52.181Z,2.52
2023-03-12T11:10:07.241Z,2.12
2023-03-12T11:15:22.192Z,2.14
2023-03-12T11:20:28.021Z,2.60
2023-03-12T11:25:31.912Z,2.88
2023-03-12T11:30:41.044Z,3.08
2023-03-12T11:35:52.551Z,3.32
2023-03-12T11:41:08.659Z,3.19
2023-03-12T11:46:50.380Z,2.75
2023-03-12T11:52:12.824Z,2.89
2023-03-12T11:57:46.286Z,3.15
2023-03-12T12:03:30.949Z,3.10
2023-03-12T12:08:55.389Z,2.92
2023-03-12T12:14:11.986Z,2.83
2023-03-12T12:19:34.128Z,2.67
2023-03-12T12:24:51.212Z,2.58
2023-03-12T12:30:16.247Z,2.66
2023-03-12T12:35:27.810Z,2.61
2023-03-12T12:40:45.239Z,2.73
2023-03-12T12:45:52.581Z,2.77
2023-03-12T12:50:55.863Z,2.78
2023-03-12T12:55:58.455Z,2.87
2023-03-12T13:01:02.637Z,3.07
2023-03-12T13:06:07.232Z,3.37
2023-03-12T13:11:19.464Z,3.49
2023-03-12T13:16:34.244Z,3.55
2023-03-12T13:21:58.857Z,3.54
2023-03-12T13:27:19.340Z,3.45
2023-03-12T13:32:34.599Z,3.32
2023-03-12T13:37:46.780Z,3.31
2023-03-12T13:43:05.842Z,3.20
2023-03-12T13:48:16.407Z,2.90
2023-03-12T13:53:32.695Z,2.68
2023-03-12T13:59:09.661Z,2.50
2023-03-12T14:04:20.756Z,2.27
2023-03-12T14:09:32.785Z,2.20
2023-03-12T14:15:05.493Z,2.42
2023-03-12T14:20:11.335Z,2.66
2023-03-12T14:25:36.167Z,2.75
2023-03-12T14:30:49.778Z,2.89
2023-03-12T14:36:07.829Z,3.04
2023-03-12T14:41:39.840Z,3.09
2023-03-12T14:46:49.139Z,3.05
2023-03-12T14:51:51.938Z,3.08
2023-03-12T14:56:54.731Z,3.04
2023-03-12T15:02:02.250Z,3.02
2023-03-12T15:07:10.746Z,3.32
2023-03-12T15:12:35.078Z,3.77
2023-03-12T15:17:38.086Z,3.50
2023-03-12T15:22:41.564Z,3.12
2023-03-12T15:27:44.396Z,2.97
2023-03-12T15:33:22.119Z,2.88
2023-03-12T15:38:25.636Z,2.62
2023-03-12T15:43:28.505Z,2.32
2023-03-12T15:48:35.061Z,2.10
2023-03-12T15:53:37.825Z,1.94
2023-03-12T15:58:42.075Z,1.81
2023-03-12T16:03:46.090Z,1.69
2023-03-12T16:08:53.109Z,1.52
2023-03-12T16:14:05.118Z,1.32
2023-03-12T16:19:20.394Z,1.09
2023-03-12T16:24:23.443Z,0.88
2023-03-12T16:29:35.646Z,0.68
2023-03-12T16:34:38.373Z,0.45
2023-03-12T16:39:41.245Z,0.23
2023-03-12T16:44:46.348Z,0.01
2023-03-12T16:49:49.290Z,-0.21
2023-03-12T16:54:53.023Z,-0.44
2023-03-12T16:59:55.746Z,-0.67
2023-03-12T17:04:58.714Z,-0.91
2023-03-12T17:10:01.495Z,-1.16
2023-03-12T17:15:25.923Z,-1.43
2023-03-12T17:20:34.916Z,-1.72
2023-03-12T17:25:40.761Z,-1.96
2023-03-12T17:30:44.287Z,-2.15
2023-03-12T17:35:58.866Z,-2.28
2023-03-12T17:41:02.173Z,-2.34
2023-03-12T17:46:08.802Z,-2.37
2023-03-12T17:51:11.739Z,-2.37
2023-03-12T17:56:17.991Z,-2.36
2023-03-12T18:01:21.080Z,-2.35
2023-03-12T18:06:25.082Z,-0.59
2023-03-12T18:11:28.097Z,4.40
2023-03-12T18:16:30.909Z,4.65
2023-03-12T18:21:33.742Z,2.50
2023-03-12T18:26:36.499Z,1.46
2023-03-12T18:31:39.288Z,0.77
2023-03-12T18:36:42.184Z,0.19
2023-03-12T18:41:44.995Z,-0.33
2023-03-12T18:46:49.045Z,-0.77
2023-03-12T18:51:55.962Z,-1.16
2023-03-12T18:56:58.749Z,-1.48
2023-03-12T19:02:01.554Z,-1.75
2023-03-12T19:07:05.173Z,-1.98
2023-03-12T19:12:07.979Z,-2.18
2023-03-12T19:17:10.673Z,-2.36
2023-03-12T19:22:13.472Z,-2.49
2023-03-12T19:27:16.200Z,-0.69
2023-03-12T19:32:18.933Z,4.04
2023-03-12T19:37:22.570Z,4.07
2023-03-12T19:42:25.423Z,1.85
2023-03-12T19:47:33.126Z,0.56
2023-03-12T19:52:35.838Z,-0.24
2023-03-12T19:57:39.057Z,-0.76
2023-03-12T20:02:42.200Z,-1.14
2023-03-12T20:07:44.987Z,-1.43
2023-03-12T20:12:47.706Z,-1.65
2023-03-12T20:17:50.467Z,-1.82
2023-03-12T20:22:53.213Z,-1.94
2023-03-12T20:27:57.424Z,-2.04
2023-03-12T20:33:00.843Z,-0.27
2023-03-12T20:38:05.045Z,4.47
2023-03-12T20:43:07.742Z,3.97
2023-03-12T20:48:10.925Z,1.84
2023-03-12T20:53:13.762Z,0.73
2023-03-12T20:58:17.141Z,0.05
2023-03-12T21:03:20.560Z,-0.49
2023-03-12T21:08:24.037Z,-0.94
2023-03-12T21:13:26.853Z,-1.34
2023-03-12T21:18:29.587Z,0.07
2023-03-12T21:23:33.405Z,4.69
2023-03-12T21:28:36.516Z,4.27
2023-03-12T21:33:39.287Z,2.10
2023-03-12T21:38:43.087Z,0.97
2023-03-12T21:43:47.248Z,0.25
2023-03-12T21:48:50.324Z,-0.34
2023-03-12T21:53:57.680Z,-0.83
2023-03-12T21:59:00.553Z,-1.21
2023-03-12T22:04:05.579Z,-1.46
2023-03-12T22:09:08.829Z,-1.65
2023-03-12T22:14:11.525Z,-1.81
2023-03-12T22:19:14.642Z,-0.14
2023-03-12T22:24:17.392Z,4.61
2023-03-12T22:29:20.184Z,4.91
2023-03-12T22:34:22.930Z,2.48
2023-03-12T22:39:25.665Z,1.18
2023-03-12T22:44:28.364Z,0.40
2023-03-12T22:49:31.063Z,-0.20
2023-03-12T22:54:33.871Z,-0.70
2023-03-12T22:59:38.264Z,-1.10
2023-03-12T23:04:41.069Z,-1.41
2023-03-12T23:09:44.988Z,0.12
2023-03-12T23:14:47.803Z,4.83
2023-03-12T23:19:50.517Z,4.41
2023-03-12T23:24:53.327Z,2.19
2023-03-12T23:29:56.068Z,1.01
2023-03-12T23:34:58.803Z,0.30
2023-03-12T23:40:01.755Z,-0.27
2023-03-12T23:45:05.086Z,-0.73
2023-03-12T23:50:08.392Z,-1.07
2023-03-12T23:55:11.090Z,-1.33
